sensor_id;sensor_type;location;lat;lon;timestamp;temperature;humidity
22682;DHT22;11508;50.856;4.380;2023-08-06T01:28:22;15.40;99.90
22682;DHT22;11508;50.856;4.380;2023-08-06T01:30:50;15.90;99.90
22682;DHT22;11508;50.856;4.380;2023-08-06T01:33:19;15.30;99.90
22682;DHT22;11508;50.856;4.380;2023-08-06T01:35:46;15.40;99.90
22682;DHT22;11508;50.856;4.380;2023-08-06T01:38:13;15.30;99.90
22682;DHT22;11508;50.856;4.380;2023-08-06T01:40:39;15.40;99.90
22682;DHT22;11508;50.856;4.380;2023-08-06T01:43:05;15.40;99.90
22682;DHT22;11508;50.856;4.380;2023-08-06T01:45:32;15.60;99.90
22682;DHT22;11508;50.856;4.380;2023-08-06T01:47:58;15.60;99.90
22682;DHT22;11508;50.856;4.380;2023-08-06T01:50:24;15.60;99.90
22682;DHT22;11508;50.856;4.380;2023-08-06T01:52:49;15.40;99.90
22682;DHT22;11508;50.856;4.380;2023-08-06T01:55:15;15.40;99.90
22682;DHT22;11508;50.856;4.380;2023-08-06T01:57:41;15.30;99.90
22682;DHT22;11508;50.856;4.380;2023-08-06T02:00:07;15.30;99.90
22682;DHT22;11508;50.856;4.380;2023-08-06T02:02:33;15.40;99.90
22682;DHT22;11508;50.856;4.380;2023-08-06T02:04:59;15.50;99.90
22682;DHT22;11508;50.856;4.380;2023-08-06T02:07:25;15.40;99.90
22682;DHT22;11508;50.856;4.380;2023-08-06T02:09:50;15.40;99.90
22682;DHT22;11508;50.856;4.380;2023-08-06T02:12:16;15.40;99.90
22682;DHT22;11508;50.856;4.380;2023-08-06T02:14:42;15.30;99.90
22682;DHT22;11508;50.856;4.380;2023-08-06T02:17:07;15.00;99.90
22682;DHT22;11508;50.856;4.380;2023-08-06T02:19:33;14.40;99.90
22682;DHT22;11508;50.856;4.380;2023-08-06T02:21:59;14.20;99.90
22682;DHT22;11508;50.856;4.380;2023-08-06T02:24:24;15.10;99.90
22682;DHT22;11508;50.856;4.380;2023-08-06T02:26:50;14.90;99.90
22682;DHT22;11508;50.856;4.380;2023-08-06T02:29:17;15.00;99.90
22682;DHT22;11508;50.856;4.380;2023-08-06T02:31:43;15.00;99.90
22682;DHT22;11508;50.856;4.380;2023-08-06T02:34:09;14.90;99.90
22682;DHT22;11508;50.856;4.380;2023-08-06T02:36:35;15.00;99.90
22682;DHT22;11508;50.856;4.380;2023-08-06T02:39:00;14.90;99.90
22682;DHT22;11508;50.856;4.380;2023-08-06T02:41:26;14.90;99.90
22682;DHT22;11508;50.856;4.380;2023-08-06T02:43:53;14.90;99.90
22682;DHT22;11508;50.856;4.380;2023-08-06T02:46:19;14.90;99.90
22682;DHT22;11508;50.856;4.380;2023-08-06T02:48:45;15.00;99.90
22682;DHT22;11508;50.856;4.380;2023-08-06T02:51:10;15.00;99.90
22682;DHT22;11508;50.856;4.380;2023-08-06T02:53:36;15.00;99.90
22682;DHT22;11508;50.856;4.380;2023-08-06T02:56:02;15.20;99.90
22682;DHT22;11508;50.856;4.380;2023-08-06T02:58:28;15.30;99.90
22682;DHT22;11508;50.856;4.380;2023-08-06T03:01:04;15.40;99.90
22682;DHT22;11508;50.856;4.380;2023-08-06T03:03:31;15.20;99.90
22682;DHT22;11508;50.856;4.380;2023-08-06T03:05:57;15.30;99.90
22682;DHT22;11508;50.856;4.380;2023-08-06T03:08:23;15.20;99.90
22682;DHT22;11508;50.856;4.380;2023-08-06T03:10:49;15.30;99.90
22682;DHT22;11508;50.856;4.380;2023-08-06T03:13:16;15.50;99.90
22682;DHT22;11508;50.856;4.380;2023-08-06T03:15:42;15.50;99.90
22682;DHT22;11508;50.856;4.380;2023-08-06T03:18:08;15.40;99.90
22682;DHT22;11508;50.856;4.380;2023-08-06T03:20:33;15.60;99.90
22682;DHT22;11508;50.856;4.380;2023-08-06T03:22:59;15.70;99.90
22682;DHT22;11508;50.856;4.380;2023-08-06T03:25:25;15.90;99.90
22682;DHT22;11508;50.856;4.380;2023-08-06T03:27:51;16.00;99.90
22682;DHT22;11508;50.856;4.380;2023-08-06T03:30:17;15.90;99.90
22682;DHT22;11508;50.856;4.380;2023-08-06T03:32:42;16.00;99.90
22682;DHT22;11508;50.856;4.380;2023-08-06T03:35:08;16.00;99.90
22682;DHT22;11508;50.856;4.380;2023-08-06T03:37:34;16.10;99.90
22682;DHT22;11508;50.856;4.380;2023-08-06T03:39:59;16.30;99.90
22682;DHT22;11508;50.856;4.380;2023-08-06T03:42:25;16.30;99.90
22682;DHT22;11508;50.856;4.380;2023-08-06T03:44:51;16.30;99.90
22682;DHT22;11508;50.856;4.380;2023-08-06T03:47:16;16.40;99.90
22682;DHT22;11508;50.856;4.380;2023-08-06T03:49:42;16.40;99.90
22682;DHT22;11508;50.856;4.380;2023-08-06T03:52:08;16.20;99.90
22682;DHT22;11508;50.856;4.380;2023-08-06T03:54:34;16.20;99.90
22682;DHT22;11508;50.856;4.380;2023-08-06T03:57:00;16.30;99.90
22682;DHT22;11508;50.856;4.380;2023-08-06T04:22:44;15.20;99.90
22682;DHT22;11508;50.856;4.380;2023-08-06T04:30:16;15.00;99.90
22682;DHT22;11508;50.856;4.380;2023-08-06T04:35:19;14.80;99.90
22682;DHT22;11508;50.856;4.380;2023-08-06T04:37:45;14.70;99.90
22682;DHT22;11508;50.856;4.380;2023-08-06T04:40:13;14.90;99.90
22682;DHT22;11508;50.856;4.380;2023-08-06T04:42:42;15.10;99.90
22682;DHT22;11508;50.856;4.380;2023-08-06T04:45:08;15.30;99.90
22682;DHT22;11508;50.856;4.380;2023-08-06T04:47:34;15.10;99.90
22682;DHT22;11508;50.856;4.380;2023-08-06T04:50:00;14.90;99.90
22682;DHT22;11508;50.856;4.380;2023-08-06T04:52:26;14.70;99.90
22682;DHT22;11508;50.856;4.380;2023-08-06T04:54:54;14.90;99.90
22682;DHT22;11508;50.856;4.380;2023-08-06T04:57:20;14.90;99.90
22682;DHT22;11508;50.856;4.380;2023-08-06T04:59:46;14.80;99.90
22682;DHT22;11508;50.856;4.380;2023-08-06T05:02:11;14.80;99.90
22682;DHT22;11508;50.856;4.380;2023-08-06T05:04:37;14.70;99.90
22682;DHT22;11508;50.856;4.380;2023-08-06T05:07:03;14.70;99.90
22682;DHT22;11508;50.856;4.380;2023-08-06T05:09:29;14.60;99.90
22682;DHT22;11508;50.856;4.380;2023-08-06T05:11:54;14.70;99.90
22682;DHT22;11508;50.856;4.380;2023-08-06T05:14:20;14.60;99.90
22682;DHT22;11508;50.856;4.380;2023-08-06T05:16:46;14.50;99.90
22682;DHT22;11508;50.856;4.380;2023-08-06T05:19:11;14.50;99.90
22682;DHT22;11508;50.856;4.380;2023-08-06T05:21:37;14.50;99.90
22682;DHT22;11508;50.856;4.380;2023-08-06T05:24:03;14.60;99.90
22682;DHT22;11508;50.856;4.380;2023-08-06T05:26:29;14.00;99.90
22682;DHT22;11508;50.856;4.380;2023-08-06T05:28:54;14.60;99.90
22682;DHT22;11508;50.856;4.380;2023-08-06T05:31:20;14.60;99.90
22682;DHT22;11508;50.856;4.380;2023-08-06T05:33:46;14.60;99.90
22682;DHT22;11508;50.856;4.380;2023-08-06T05:36:12;14.70;99.90
22682;DHT22;11508;50.856;4.380;2023-08-06T05:38:38;14.80;99.90
22682;DHT22;11508;50.856;4.380;2023-08-06T05:41:03;15.00;99.90
22682;DHT22;11508;50.856;4.380;2023-08-06T05:43:29;14.90;99.90
22682;DHT22;11508;50.856;4.380;2023-08-06T05:45:56;15.00;99.90
22682;DHT22;11508;50.856;4.380;2023-08-06T05:48:22;14.90;99.90
22682;DHT22;11508;50.856;4.380;2023-08-06T05:50:51;15.10;99.90
22682;DHT22;11508;50.856;4.380;2023-08-06T05:53:17;14.80;99.90
22682;DHT22;11508;50.856;4.380;2023-08-06T05:55:43;14.90;99.90
22682;DHT22;11508;50.856;4.380;2023-08-06T05:58:10;15.00;99.90
22682;DHT22;11508;50.856;4.380;2023-08-06T06:00:36;15.10;99.90
22682;DHT22;11508;50.856;4.380;2023-08-06T06:03:01;15.10;99.90
22682;DHT22;11508;50.856;4.380;2023-08-06T06:05:28;15.10;99.90
22682;DHT22;11508;50.856;4.380;2023-08-06T06:07:54;15.00;99.90
22682;DHT22;11508;50.856;4.380;2023-08-06T06:10:20;15.00;99.90
22682;DHT22;11508;50.856;4.380;2023-08-06T06:12:46;15.00;99.90
22682;DHT22;11508;50.856;4.380;2023-08-06T06:15:13;15.10;99.90
22682;DHT22;11508;50.856;4.380;2023-08-06T06:17:39;15.10;99.90
22682;DHT22;11508;50.856;4.380;2023-08-06T06:44:25;15.10;99.90
22682;DHT22;11508;50.856;4.380;2023-08-06T06:46:51;15.10;99.90
22682;DHT22;11508;50.856;4.380;2023-08-06T06:49:17;15.00;99.90
22682;DHT22;11508;50.856;4.380;2023-08-06T06:51:42;15.00;99.90
22682;DHT22;11508;50.856;4.380;2023-08-06T06:54:08;15.30;99.90
22682;DHT22;11508;50.856;4.380;2023-08-06T06:56:34;15.30;99.90
22682;DHT22;11508;50.856;4.380;2023-08-06T06:59:00;15.20;99.90
22682;DHT22;11508;50.856;4.380;2023-08-06T07:01:25;15.30;99.90
22682;DHT22;11508;50.856;4.380;2023-08-06T07:03:51;15.30;99.90
22682;DHT22;11508;50.856;4.380;2023-08-06T07:06:17;14.70;99.90
22682;DHT22;11508;50.856;4.380;2023-08-06T07:08:44;15.20;99.90
22682;DHT22;11508;50.856;4.380;2023-08-06T07:11:10;15.40;99.90
22682;DHT22;11508;50.856;4.380;2023-08-06T07:13:36;15.20;99.90
22682;DHT22;11508;50.856;4.380;2023-08-06T07:16:02;14.90;99.90
22682;DHT22;11508;50.856;4.380;2023-08-06T07:18:28;15.30;99.90
22682;DHT22;11508;50.856;4.380;2023-08-06T07:20:54;15.20;99.90
22682;DHT22;11508;50.856;4.380;2023-08-06T07:23:21;15.20;99.90
22682;DHT22;11508;50.856;4.380;2023-08-06T07:25:48;15.30;99.90
22682;DHT22;11508;50.856;4.380;2023-08-06T07:28:14;15.50;99.90
22682;DHT22;11508;50.856;4.380;2023-08-06T07:30:43;15.30;99.90
22682;DHT22;11508;50.856;4.380;2023-08-06T07:33:09;15.40;99.90
22682;DHT22;11508;50.856;4.380;2023-08-06T07:35:35;15.30;99.90
22682;DHT22;11508;50.856;4.380;2023-08-06T07:38:01;15.30;99.90
22682;DHT22;11508;50.856;4.380;2023-08-06T07:40:27;15.40;99.90
22682;DHT22;11508;50.856;4.380;2023-08-06T07:42:53;15.50;99.90
22682;DHT22;11508;50.856;4.380;2023-08-06T07:45:19;15.60;99.90
22682;DHT22;11508;50.856;4.380;2023-08-06T07:47:44;15.90;99.90
22682;DHT22;11508;50.856;4.380;2023-08-06T07:50:10;16.30;99.90
22682;DHT22;11508;50.856;4.380;2023-08-06T07:52:36;16.00;99.90
22682;DHT22;11508;50.856;4.380;2023-08-06T07:55:02;15.80;99.90
22682;DHT22;11508;50.856;4.380;2023-08-06T07:57:33;15.90;99.90
22682;DHT22;11508;50.856;4.380;2023-08-06T08:00:00;16.20;99.90
22682;DHT22;11508;50.856;4.380;2023-08-06T08:02:26;16.30;99.90
22682;DHT22;11508;50.856;4.380;2023-08-06T08:04:52;16.60;99.90
22682;DHT22;11508;50.856;4.380;2023-08-06T08:07:18;16.20;99.90
22682;DHT22;11508;50.856;4.380;2023-08-06T08:09:44;16.70;99.90
22682;DHT22;11508;50.856;4.380;2023-08-06T08:12:09;17.10;99.90
22682;DHT22;11508;50.856;4.380;2023-08-06T08:14:35;16.90;99.90
22682;DHT22;11508;50.856;4.380;2023-08-06T08:17:03;16.40;99.90
22682;DHT22;11508;50.856;4.380;2023-08-06T08:19:29;16.00;99.90
22682;DHT22;11508;50.856;4.380;2023-08-06T08:21:55;16.20;99.90
22682;DHT22;11508;50.856;4.380;2023-08-06T08:24:21;16.40;99.90
22682;DHT22;11508;50.856;4.380;2023-08-06T08:26:50;16.70;99.90
22682;DHT22;11508;50.856;4.380;2023-08-06T08:29:16;16.10;99.90
22682;DHT22;11508;50.856;4.380;2023-08-06T08:31:41;16.10;99.90
22682;DHT22;11508;50.856;4.380;2023-08-06T08:34:08;15.80;99.90
22682;DHT22;11508;50.856;4.380;2023-08-06T08:36:34;15.80;99.90
22682;DHT22;11508;50.856;4.380;2023-08-06T08:39:00;16.00;99.90
22682;DHT22;11508;50.856;4.380;2023-08-06T08:41:28;16.00;99.90
22682;DHT22;11508;50.856;4.380;2023-08-06T08:43:56;16.00;99.90
22682;DHT22;11508;50.856;4.380;2023-08-06T08:46:24;15.20;99.90
22682;DHT22;11508;50.856;4.380;2023-08-06T08:48:51;15.30;99.90
22682;DHT22;11508;50.856;4.380;2023-08-06T08:51:17;15.50;99.90
22682;DHT22;11508;50.856;4.380;2023-08-06T08:53:44;15.80;99.90
22682;DHT22;11508;50.856;4.380;2023-08-06T08:56:13;15.70;99.90
22682;DHT22;11508;50.856;4.380;2023-08-06T08:58:39;15.50;99.90
22682;DHT22;11508;50.856;4.380;2023-08-06T09:01:06;15.80;99.90
22682;DHT22;11508;50.856;4.380;2023-08-06T09:03:33;15.80;99.90
22682;DHT22;11508;50.856;4.380;2023-08-06T09:06:02;15.60;99.90
22682;DHT22;11508;50.856;4.380;2023-08-06T09:08:34;15.40;99.90
22682;DHT22;11508;50.856;4.380;2023-08-06T09:11:03;15.60;99.90
22682;DHT22;11508;50.856;4.380;2023-08-06T09:13:30;15.50;99.90
22682;DHT22;11508;50.856;4.380;2023-08-06T09:15:55;15.70;99.90
22682;DHT22;11508;50.856;4.380;2023-08-06T09:18:29;15.80;99.90
22682;DHT22;11508;50.856;4.380;2023-08-06T09:20:56;15.40;99.90
22682;DHT22;11508;50.856;4.380;2023-08-06T09:23:28;15.30;99.90
22682;DHT22;11508;50.856;4.380;2023-08-06T09:25:56;15.50;99.90
22682;DHT22;11508;50.856;4.380;2023-08-06T09:28:22;15.40;99.90
22682;DHT22;11508;50.856;4.380;2023-08-06T09:30:50;15.00;99.90
22682;DHT22;11508;50.856;4.380;2023-08-06T09:33:19;14.50;99.90
22682;DHT22;11508;50.856;4.380;2023-08-06T09:38:20;14.90;99.90
22682;DHT22;11508;50.856;4.380;2023-08-06T09:40:47;15.20;99.90
22682;DHT22;11508;50.856;4.380;2023-08-06T09:43:12;14.70;99.90
22682;DHT22;11508;50.856;4.380;2023-08-06T09:45:39;14.60;99.90
22682;DHT22;11508;50.856;4.380;2023-08-06T09:48:07;14.40;99.90
22682;DHT22;11508;50.856;4.380;2023-08-06T09:50:35;14.50;99.90
22682;DHT22;11508;50.856;4.380;2023-08-06T09:53:05;14.60;99.90
22682;DHT22;11508;50.856;4.380;2023-08-06T09:55:32;14.60;99.90
22682;DHT22;11508;50.856;4.380;2023-08-06T09:57:59;14.50;99.90
22682;DHT22;11508;50.856;4.380;2023-08-06T10:00:25;14.50;99.90
22682;DHT22;11508;50.856;4.380;2023-08-06T10:02:53;14.50;99.90
22682;DHT22;11508;50.856;4.380;2023-08-06T10:05:21;15.10;99.90
22682;DHT22;11508;50.856;4.380;2023-08-06T10:07:49;15.00;99.90
22682;DHT22;11508;50.856;4.380;2023-08-06T10:10:16;15.20;99.90
22682;DHT22;11508;50.856;4.380;2023-08-06T10:12:52;14.90;99.90
22682;DHT22;11508;50.856;4.380;2023-08-06T10:15:23;14.90;99.90
22682;DHT22;11508;50.856;4.380;2023-08-06T10:17:52;15.00;99.90
22682;DHT22;11508;50.856;4.380;2023-08-06T10:20:20;14.90;99.90
22682;DHT22;11508;50.856;4.380;2023-08-06T10:23:00;15.00;99.90
22682;DHT22;11508;50.856;4.380;2023-08-06T10:25:26;15.20;99.90
22682;DHT22;11508;50.856;4.380;2023-08-06T10:30:31;15.20;99.90
22682;DHT22;11508;50.856;4.380;2023-08-06T10:33:04;15.20;99.90
22682;DHT22;11508;50.856;4.380;2023-08-06T10:35:48;15.40;99.90
22682;DHT22;11508;50.856;4.380;2023-08-06T10:38:19;15.00;99.90
22682;DHT22;11508;50.856;4.380;2023-08-06T10:45:52;14.80;99.90
22682;DHT22;11508;50.856;4.380;2023-08-06T10:48:34;14.90;99.90
22682;DHT22;11508;50.856;4.380;2023-08-06T10:51:01;15.20;99.90
22682;DHT22;11508;50.856;4.380;2023-08-06T10:53:27;15.30;99.90
22682;DHT22;11508;50.856;4.380;2023-08-06T10:55:53;15.10;99.90
22682;DHT22;11508;50.856;4.380;2023-08-06T10:58:18;15.10;99.90
22682;DHT22;11508;50.856;4.380;2023-08-06T11:00:44;15.00;99.90
22682;DHT22;11508;50.856;4.380;2023-08-06T11:03:10;15.20;99.90
22682;DHT22;11508;50.856;4.380;2023-08-06T11:05:39;15.20;99.90
22682;DHT22;11508;50.856;4.380;2023-08-06T11:08:05;15.20;99.90
22682;DHT22;11508;50.856;4.380;2023-08-06T11:10:33;15.40;99.90
22682;DHT22;11508;50.856;4.380;2023-08-06T11:13:03;15.50;99.90
22682;DHT22;11508;50.856;4.380;2023-08-06T11:15:30;15.40;99.90
22682;DHT22;11508;50.856;4.380;2023-08-06T11:17:56;15.90;99.90
22682;DHT22;11508;50.856;4.380;2023-08-06T11:20:24;16.20;99.90
22682;DHT22;11508;50.856;4.380;2023-08-06T11:22:50;16.00;99.90
22682;DHT22;11508;50.856;4.380;2023-08-06T11:25:16;15.90;99.90
22682;DHT22;11508;50.856;4.380;2023-08-06T11:27:41;16.00;99.90
22682;DHT22;11508;50.856;4.380;2023-08-06T11:30:07;16.20;99.90
22682;DHT22;11508;50.856;4.380;2023-08-06T11:32:45;16.30;99.90
22682;DHT22;11508;50.856;4.380;2023-08-06T11:35:11;16.20;99.90
22682;DHT22;11508;50.856;4.380;2023-08-06T11:37:39;16.30;99.90
22682;DHT22;11508;50.856;4.380;2023-08-06T11:40:09;16.00;99.90
22682;DHT22;11508;50.856;4.380;2023-08-06T11:42:36;15.60;99.90
22682;DHT22;11508;50.856;4.380;2023-08-06T11:45:05;15.60;99.90
22682;DHT22;11508;50.856;4.380;2023-08-06T11:47:31;15.70;99.90
22682;DHT22;11508;50.856;4.380;2023-08-06T11:49:57;15.50;99.90
22682;DHT22;11508;50.856;4.380;2023-08-06T11:52:24;15.50;99.90
22682;DHT22;11508;50.856;4.380;2023-08-06T11:55:01;15.40;99.90
22682;DHT22;11508;50.856;4.380;2023-08-06T11:57:39;15.10;99.90
22682;DHT22;11508;50.856;4.380;2023-08-06T12:00:07;15.10;99.90
22682;DHT22;11508;50.856;4.380;2023-08-06T12:02:35;15.00;99.90
22682;DHT22;11508;50.856;4.380;2023-08-06T12:05:03;14.90;99.90
22682;DHT22;11508;50.856;4.380;2023-08-06T12:07:33;15.00;99.90
22682;DHT22;11508;50.856;4.380;2023-08-06T12:10:03;14.90;99.90
22682;DHT22;11508;50.856;4.380;2023-08-06T12:12:29;15.00;99.90
22682;DHT22;11508;50.856;4.380;2023-08-06T12:14:55;15.10;99.90
22682;DHT22;11508;50.856;4.380;2023-08-06T12:17:22;15.30;99.90
22682;DHT22;11508;50.856;4.380;2023-08-06T12:19:48;15.30;99.90
22682;DHT22;11508;50.856;4.380;2023-08-06T12:22:14;15.40;99.90
22682;DHT22;11508;50.856;4.380;2023-08-06T12:24:42;14.90;99.90
22682;DHT22;11508;50.856;4.380;2023-08-06T12:27:09;15.40;99.90
22682;DHT22;11508;50.856;4.380;2023-08-06T12:29:35;15.60;99.90
22682;DHT22;11508;50.856;4.380;2023-08-06T12:32:01;15.70;99.90
22682;DHT22;11508;50.856;4.380;2023-08-06T12:34:27;15.70;99.90
22682;DHT22;11508;50.856;4.380;2023-08-06T12:36:53;16.30;99.90
22682;DHT22;11508;50.856;4.380;2023-08-06T12:39:18;16.50;99.90
22682;DHT22;11508;50.856;4.380;2023-08-06T12:41:44;16.70;99.90
22682;DHT22;11508;50.856;4.380;2023-08-06T12:44:12;16.30;99.90
22682;DHT22;11508;50.856;4.380;2023-08-06T12:46:37;15.70;99.90
22682;DHT22;11508;50.856;4.380;2023-08-06T12:49:03;15.50;99.90
22682;DHT22;11508;50.856;4.380;2023-08-06T12:51:29;15.90;99.90
22682;DHT22;11508;50.856;4.380;2023-08-06T12:53:55;16.30;99.90
22682;DHT22;11508;50.856;4.380;2023-08-06T12:56:20;16.00;99.90
22682;DHT22;11508;50.856;4.380;2023-08-06T12:58:46;15.80;99.90
22682;DHT22;11508;50.856;4.380;2023-08-06T13:01:12;16.10;99.90
22682;DHT22;11508;50.856;4.380;2023-08-06T13:03:37;16.30;99.90
22682;DHT22;11508;50.856;4.380;2023-08-06T13:06:03;16.70;99.90
22682;DHT22;11508;50.856;4.380;2023-08-06T13:08:29;16.40;99.90
22682;DHT22;11508;50.856;4.380;2023-08-06T13:10:55;15.70;99.90
22682;DHT22;11508;50.856;4.380;2023-08-06T13:13:20;15.40;99.90
22682;DHT22;11508;50.856;4.380;2023-08-06T13:15:46;15.40;99.90
22682;DHT22;11508;50.856;4.380;2023-08-06T13:18:12;15.50;99.90
22682;DHT22;11508;50.856;4.380;2023-08-06T13:20:38;15.60;99.90
22682;DHT22;11508;50.856;4.380;2023-08-06T13:23:07;15.60;99.90
22682;DHT22;11508;50.856;4.380;2023-08-06T13:25:33;15.80;99.90
22682;DHT22;11508;50.856;4.380;2023-08-06T13:28:02;16.10;99.90
22682;DHT22;11508;50.856;4.380;2023-08-06T13:30:28;15.50;99.90
22682;DHT22;11508;50.856;4.380;2023-08-06T13:32:54;15.60;99.90
22682;DHT22;11508;50.856;4.380;2023-08-06T13:35:22;15.50;99.90
22682;DHT22;11508;50.856;4.380;2023-08-06T13:37:48;15.40;99.90
22682;DHT22;11508;50.856;4.380;2023-08-06T13:40:13;15.30;99.90
22682;DHT22;11508;50.856;4.380;2023-08-06T13:42:39;15.30;99.90
22682;DHT22;11508;50.856;4.380;2023-08-06T13:45:06;15.30;99.90
22682;DHT22;11508;50.856;4.380;2023-08-06T13:47:32;15.30;99.90
22682;DHT22;11508;50.856;4.380;2023-08-06T14:10:41;15.10;99.90
22682;DHT22;11508;50.856;4.380;2023-08-06T14:13:06;15.20;99.90
22682;DHT22;11508;50.856;4.380;2023-08-06T14:15:32;15.10;99.90
22682;DHT22;11508;50.856;4.380;2023-08-06T14:17:58;15.60;99.90
22682;DHT22;11508;50.856;4.380;2023-08-06T14:20:24;15.80;99.90
22682;DHT22;11508;50.856;4.380;2023-08-06T14:22:50;15.60;99.90
22682;DHT22;11508;50.856;4.380;2023-08-06T14:25:16;15.70;99.90
22682;DHT22;11508;50.856;4.380;2023-08-06T14:27:41;15.60;99.90
22682;DHT22;11508;50.856;4.380;2023-08-06T14:30:07;15.40;99.90
22682;DHT22;11508;50.856;4.380;2023-08-06T14:32:33;15.50;99.90
22682;DHT22;11508;50.856;4.380;2023-08-06T14:35:00;15.50;99.90
22682;DHT22;11508;50.856;4.380;2023-08-06T14:37:26;15.40;99.90
22682;DHT22;11508;50.856;4.380;2023-08-06T14:39:52;15.30;99.90
22682;DHT22;11508;50.856;4.380;2023-08-06T14:42:18;15.50;99.90
22682;DHT22;11508;50.856;4.380;2023-08-06T14:44:43;15.40;99.90
22682;DHT22;11508;50.856;4.380;2023-08-06T14:47:09;15.40;99.90
22682;DHT22;11508;50.856;4.380;2023-08-06T14:49:35;15.40;99.90
22682;DHT22;11508;50.856;4.380;2023-08-06T14:52:01;15.50;99.90
22682;DHT22;11508;50.856;4.380;2023-08-06T14:54:27;15.90;99.90
22682;DHT22;11508;50.856;4.380;2023-08-06T14:56:53;15.70;99.90
22682;DHT22;11508;50.856;4.380;2023-08-06T14:59:19;15.90;99.90
22682;DHT22;11508;50.856;4.380;2023-08-06T15:01:44;15.90;99.90
22682;DHT22;11508;50.856;4.380;2023-08-06T15:04:10;15.90;99.90
22682;DHT22;11508;50.856;4.380;2023-08-06T15:06:36;16.30;99.90
22682;DHT22;11508;50.856;4.380;2023-08-06T15:09:01;16.20;99.90
22682;DHT22;11508;50.856;4.380;2023-08-06T15:11:27;16.10;99.90
22682;DHT22;11508;50.856;4.380;2023-08-06T15:13:53;16.00;99.90
22682;DHT22;11508;50.856;4.380;2023-08-06T15:16:20;16.00;99.90
22682;DHT22;11508;50.856;4.380;2023-08-06T15:18:46;16.10;99.90
22682;DHT22;11508;50.856;4.380;2023-08-06T15:21:12;16.10;99.90
22682;DHT22;11508;50.856;4.380;2023-08-06T15:23:37;16.10;99.90
22682;DHT22;11508;50.856;4.380;2023-08-06T15:26:03;16.10;99.90
22682;DHT22;11508;50.856;4.380;2023-08-06T15:28:29;15.30;99.90
22682;DHT22;11508;50.856;4.380;2023-08-06T15:30:55;14.90;99.90
22682;DHT22;11508;50.856;4.380;2023-08-06T15:33:21;14.40;99.90
22682;DHT22;11508;50.856;4.380;2023-08-06T15:35:48;14.80;99.90
22682;DHT22;11508;50.856;4.380;2023-08-06T15:38:14;14.90;99.90
22682;DHT22;11508;50.856;4.380;2023-08-06T15:40:40;15.00;99.90
22682;DHT22;11508;50.856;4.380;2023-08-06T15:43:05;15.40;99.90
22682;DHT22;11508;50.856;4.380;2023-08-06T15:45:32;15.90;99.90
22682;DHT22;11508;50.856;4.380;2023-08-06T15:47:57;16.20;99.90
22682;DHT22;11508;50.856;4.380;2023-08-06T15:50:23;16.40;99.90
22682;DHT22;11508;50.856;4.380;2023-08-06T15:52:50;16.50;99.90
22682;DHT22;11508;50.856;4.380;2023-08-06T15:55:15;16.80;99.90
22682;DHT22;11508;50.856;4.380;2023-08-06T15:57:41;16.90;99.90
22682;DHT22;11508;50.856;4.380;2023-08-06T16:00:09;17.00;96.70
22682;DHT22;11508;50.856;4.380;2023-08-06T16:02:35;16.70;98.70
22682;DHT22;11508;50.856;4.380;2023-08-06T16:05:00;16.60;1.00
22682;DHT22;11508;50.856;4.380;2023-08-06T16:07:26;16.70;1.00
22682;DHT22;11508;50.856;4.380;2023-08-06T16:09:53;17.10;1.00
22682;DHT22;11508;50.856;4.380;2023-08-06T16:12:19;17.30;1.00
22682;DHT22;11508;50.856;4.380;2023-08-06T16:14:51;17.30;1.00
22682;DHT22;11508;50.856;4.380;2023-08-06T16:17:17;17.30;1.00
22682;DHT22;11508;50.856;4.380;2023-08-06T16:19:43;17.40;1.00
22682;DHT22;11508;50.856;4.380;2023-08-06T16:22:09;17.50;1.00
22682;DHT22;11508;50.856;4.380;2023-08-06T16:24:35;17.10;1.00
22682;DHT22;11508;50.856;4.380;2023-08-06T16:27:01;16.90;1.00
22682;DHT22;11508;50.856;4.380;2023-08-06T16:29:27;16.80;1.00
22682;DHT22;11508;50.856;4.380;2023-08-06T16:31:52;16.80;1.00
22682;DHT22;11508;50.856;4.380;2023-08-06T16:34:19;16.80;1.00
22682;DHT22;11508;50.856;4.380;2023-08-06T16:36:45;16.90;1.00
22682;DHT22;11508;50.856;4.380;2023-08-06T16:39:10;16.90;99.90
22682;DHT22;11508;50.856;4.380;2023-08-06T16:41:36;17.10;99.90
22682;DHT22;11508;50.856;4.380;2023-08-06T16:44:02;17.10;99.90
22682;DHT22;11508;50.856;4.380;2023-08-06T16:46:31;17.00;99.90
22682;DHT22;11508;50.856;4.380;2023-08-06T16:48:57;17.00;99.90
22682;DHT22;11508;50.856;4.380;2023-08-06T16:51:22;17.00;99.90
22682;DHT22;11508;50.856;4.380;2023-08-06T16:53:48;16.90;99.90
22682;DHT22;11508;50.856;4.380;2023-08-06T16:56:14;16.80;99.90
22682;DHT22;11508;50.856;4.380;2023-08-06T16:58:39;16.80;99.90
22682;DHT22;11508;50.856;4.380;2023-08-06T17:01:05;16.90;99.90
22682;DHT22;11508;50.856;4.380;2023-08-06T17:03:32;16.80;99.90
22682;DHT22;11508;50.856;4.380;2023-08-06T17:06:04;16.50;99.90
22682;DHT22;11508;50.856;4.380;2023-08-06T17:08:30;16.40;99.90
22682;DHT22;11508;50.856;4.380;2023-08-06T17:11:02;16.50;99.90
22682;DHT22;11508;50.856;4.380;2023-08-06T17:13:28;16.60;99.90
22682;DHT22;11508;50.856;4.380;2023-08-06T17:15:54;16.80;99.90
22682;DHT22;11508;50.856;4.380;2023-08-06T17:18:19;16.80;99.90
22682;DHT22;11508;50.856;4.380;2023-08-06T17:20:46;16.90;99.90
22682;DHT22;11508;50.856;4.380;2023-08-06T17:23:12;16.80;99.90
22682;DHT22;11508;50.856;4.380;2023-08-06T17:25:44;16.80;99.90
22682;DHT22;11508;50.856;4.380;2023-08-06T17:28:10;16.80;99.90
22682;DHT22;11508;50.856;4.380;2023-08-06T17:30:39;16.80;99.90
22682;DHT22;11508;50.856;4.380;2023-08-06T17:33:04;16.90;99.90
22682;DHT22;11508;50.856;4.380;2023-08-06T17:35:32;16.70;99.90
22682;DHT22;11508;50.856;4.380;2023-08-06T17:37:59;16.90;99.90
22682;DHT22;11508;50.856;4.380;2023-08-06T17:40:26;17.00;99.90
22682;DHT22;11508;50.856;4.380;2023-08-06T17:42:52;17.20;99.90
22682;DHT22;11508;50.856;4.380;2023-08-06T17:45:18;16.70;99.90
22682;DHT22;11508;50.856;4.380;2023-08-06T17:47:44;16.70;99.90
22682;DHT22;11508;50.856;4.380;2023-08-06T17:50:10;16.70;99.90
22682;DHT22;11508;50.856;4.380;2023-08-06T17:52:36;16.70;99.90
22682;DHT22;11508;50.856;4.380;2023-08-06T17:55:02;16.70;99.90
22682;DHT22;11508;50.856;4.380;2023-08-06T17:57:29;16.50;99.90
22682;DHT22;11508;50.856;4.380;2023-08-06T17:59:55;16.20;99.90
22682;DHT22;11508;50.856;4.380;2023-08-06T18:02:21;16.10;99.90
22682;DHT22;11508;50.856;4.380;2023-08-06T18:04:46;16.30;99.90
22682;DHT22;11508;50.856;4.380;2023-08-06T18:07:13;16.20;99.90
22682;DHT22;11508;50.856;4.380;2023-08-06T18:09:39;16.10;99.90
22682;DHT22;11508;50.856;4.380;2023-08-06T18:12:05;16.10;99.90
22682;DHT22;11508;50.856;4.380;2023-08-06T18:14:34;16.20;99.90
22682;DHT22;11508;50.856;4.380;2023-08-06T18:17:00;16.20;99.90
22682;DHT22;11508;50.856;4.380;2023-08-06T18:19:26;16.20;99.90
22682;DHT22;11508;50.856;4.380;2023-08-06T18:21:51;16.20;99.90